sensor_id;sensor_type;location;lat;lon;timestamp;P1;durP1;ratioP1;P2;durP2;ratioP2
21593;SDS011;10959;51.328;7.322;2022-08-04T00:00:19;2.22;;;1.77;;
21593;SDS011;10959;51.328;7.322;2022-08-04T00:02:49;2.38;;;1.95;;
21593;SDS011;10959;51.328;7.322;2022-08-04T00:05:34;3.80;;;1.70;;
21593;SDS011;10959;51.328;7.322;2022-08-04T00:08:17;2.53;;;1.58;;
21593;SDS011;10959;51.328;7.322;2022-08-04T00:10:52;3.58;;;1.58;;
21593;SDS011;10959;51.328;7.322;2022-08-04T00:13:21;2.35;;;1.80;;
21593;SDS011;10959;51.328;7.322;2022-08-04T00:15:51;2.30;;;1.55;;
21593;SDS011;10959;51.328;7.322;2022-08-04T00:18:20;2.65;;;1.55;;
21593;SDS011;10959;51.328;7.322;2022-08-04T00:20:51;4.43;;;1.67;;
21593;SDS011;10959;51.328;7.322;2022-08-04T00:23:20;4.00;;;1.60;;
21593;SDS011;10959;51.328;7.322;2022-08-04T00:25:48;3.63;;;1.83;;
21593;SDS011;10959;51.328;7.322;2022-08-04T00:28:15;3.30;;;1.40;;
21593;SDS011;10959;51.328;7.322;2022-08-04T00:30:42;3.95;;;1.80;;
21593;SDS011;10959;51.328;7.322;2022-08-04T00:33:10;2.90;;;1.75;;
21593;SDS011;10959;51.328;7.322;2022-08-04T00:35:38;2.20;;;1.58;;
21593;SDS011;10959;51.328;7.322;2022-08-04T00:38:05;4.18;;;1.80;;
21593;SDS011;10959;51.328;7.322;2022-08-04T00:40:35;2.72;;;1.55;;
21593;SDS011;10959;51.328;7.322;2022-08-04T00:43:11;3.22;;;1.85;;
21593;SDS011;10959;51.328;7.322;2022-08-04T00:45:53;1.92;;;1.55;;
21593;SDS011;10959;51.328;7.322;2022-08-04T00:48:46;2.60;;;1.70;;
21593;SDS011;10959;51.328;7.322;2022-08-04T00:51:30;3.53;;;1.90;;
21593;SDS011;10959;51.328;7.322;2022-08-04T00:54:10;3.60;;;1.98;;
21593;SDS011;10959;51.328;7.322;2022-08-04T00:56:44;2.13;;;1.45;;
21593;SDS011;10959;51.328;7.322;2022-08-04T00:59:28;3.45;;;1.75;;
21593;SDS011;10959;51.328;7.322;2022-08-04T01:02:05;2.13;;;1.80;;
21593;SDS011;10959;51.328;7.322;2022-08-04T01:04:44;3.85;;;1.95;;
21593;SDS011;10959;51.328;7.322;2022-08-04T01:07:20;3.72;;;1.58;;
21593;SDS011;10959;51.328;7.322;2022-08-04T01:10:07;3.88;;;2.00;;
21593;SDS011;10959;51.328;7.322;2022-08-04T01:12:45;4.53;;;1.80;;
21593;SDS011;10959;51.328;7.322;2022-08-04T01:15:24;3.22;;;1.52;;
21593;SDS011;10959;51.328;7.322;2022-08-04T01:17:58;3.20;;;1.65;;
21593;SDS011;10959;51.328;7.322;2022-08-04T01:20:33;4.65;;;2.00;;
21593;SDS011;10959;51.328;7.322;2022-08-04T01:26:32;4.07;;;1.80;;
21593;SDS011;10959;51.328;7.322;2022-08-04T01:29:09;2.22;;;1.67;;
21593;SDS011;10959;51.328;7.322;2022-08-04T01:31:41;3.38;;;1.85;;
21593;SDS011;10959;51.328;7.322;2022-08-04T01:34:14;2.15;;;1.60;;
21593;SDS011;10959;51.328;7.322;2022-08-04T01:36:45;2.67;;;1.90;;
21593;SDS011;10959;51.328;7.322;2022-08-04T01:39:15;2.28;;;1.63;;
21593;SDS011;10959;51.328;7.322;2022-08-04T01:42:02;4.85;;;2.03;;
21593;SDS011;10959;51.328;7.322;2022-08-04T01:44:30;5.82;;;2.17;;
21593;SDS011;10959;51.328;7.322;2022-08-04T01:47:01;4.15;;;2.03;;
21593;SDS011;10959;51.328;7.322;2022-08-04T01:49:28;2.80;;;2.08;;
21593;SDS011;10959;51.328;7.322;2022-08-04T01:51:57;4.25;;;2.20;;
21593;SDS011;10959;51.328;7.322;2022-08-04T01:54:24;3.67;;;1.80;;
21593;SDS011;10959;51.328;7.322;2022-08-04T01:56:52;3.22;;;2.13;;
21593;SDS011;10959;51.328;7.322;2022-08-04T01:59:20;3.40;;;1.95;;
21593;SDS011;10959;51.328;7.322;2022-08-04T02:01:48;4.13;;;2.10;;
21593;SDS011;10959;51.328;7.322;2022-08-04T02:04:15;3.55;;;2.13;;
21593;SDS011;10959;51.328;7.322;2022-08-04T02:06:48;2.67;;;1.70;;
21593;SDS011;10959;51.328;7.322;2022-08-04T02:09:25;3.30;;;1.65;;
21593;SDS011;10959;51.328;7.322;2022-08-04T02:12:01;3.10;;;1.60;;
21593;SDS011;10959;51.328;7.322;2022-08-04T02:14:30;3.53;;;1.67;;
21593;SDS011;10959;51.328;7.322;2022-08-04T02:17:11;5.20;;;1.98;;
21593;SDS011;10959;51.328;7.322;2022-08-04T02:19:50;3.10;;;1.60;;
21593;SDS011;10959;51.328;7.322;2022-08-04T02:22:26;4.22;;;2.05;;
21593;SDS011;10959;51.328;7.322;2022-08-04T02:24:57;3.65;;;2.25;;
21593;SDS011;10959;51.328;7.322;2022-08-04T02:27:30;2.72;;;1.75;;
21593;SDS011;10959;51.328;7.322;2022-08-04T02:30:03;3.05;;;1.85;;
21593;SDS011;10959;51.328;7.322;2022-08-04T02:32:32;3.33;;;1.88;;
21593;SDS011;10959;51.328;7.322;2022-08-04T02:35:05;2.97;;;2.03;;
21593;SDS011;10959;51.328;7.322;2022-08-04T02:37:34;2.08;;;1.77;;
21593;SDS011;10959;51.328;7.322;2022-08-04T02:40:01;2.90;;;1.80;;
21593;SDS011;10959;51.328;7.322;2022-08-04T02:42:30;2.28;;;1.65;;
21593;SDS011;10959;51.328;7.322;2022-08-04T02:44:58;2.88;;;1.92;;
21593;SDS011;10959;51.328;7.322;2022-08-04T02:47:26;4.68;;;1.98;;
21593;SDS011;10959;51.328;7.322;2022-08-04T02:49:55;5.50;;;1.70;;
21593;SDS011;10959;51.328;7.322;2022-08-04T02:52:23;2.42;;;1.65;;
21593;SDS011;10959;51.328;7.322;2022-08-04T02:54:52;3.38;;;1.70;;
21593;SDS011;10959;51.328;7.322;2022-08-04T02:57:23;2.75;;;1.48;;
21593;SDS011;10959;51.328;7.322;2022-08-04T03:00:05;2.70;;;1.77;;
21593;SDS011;10959;51.328;7.322;2022-08-04T03:02:38;2.42;;;2.08;;
21593;SDS011;10959;51.328;7.322;2022-08-04T03:05:17;3.63;;;2.10;;
21593;SDS011;10959;51.328;7.322;2022-08-04T03:07:58;4.10;;;2.25;;
21593;SDS011;10959;51.328;7.322;2022-08-04T03:17:12;3.75;;;2.03;;
21593;SDS011;10959;51.328;7.322;2022-08-04T03:20:13;3.95;;;1.95;;
21593;SDS011;10959;51.328;7.322;2022-08-04T03:32:35;2.20;;;1.98;;
21593;SDS011;10959;51.328;7.322;2022-08-04T03:35:23;6.78;;;2.10;;
21593;SDS011;10959;51.328;7.322;2022-08-04T03:38:22;4.45;;;2.10;;
21593;SDS011;10959;51.328;7.322;2022-08-04T03:41:20;3.13;;;2.13;;
21593;SDS011;10959;51.328;7.322;2022-08-04T03:44:09;3.17;;;2.17;;
21593;SDS011;10959;51.328;7.322;2022-08-04T03:50:10;3.08;;;2.03;;
21593;SDS011;10959;51.328;7.322;2022-08-04T03:53:07;2.75;;;2.03;;
21593;SDS011;10959;51.328;7.322;2022-08-04T03:58:51;2.67;;;2.10;;
21593;SDS011;10959;51.328;7.322;2022-08-04T04:01:52;3.10;;;1.77;;
21593;SDS011;10959;51.328;7.322;2022-08-04T04:07:42;2.25;;;1.92;;
21593;SDS011;10959;51.328;7.322;2022-08-04T04:10:45;3.20;;;1.75;;
21593;SDS011;10959;51.328;7.322;2022-08-04T04:13:34;3.72;;;1.65;;
21593;SDS011;10959;51.328;7.322;2022-08-04T04:16:27;4.53;;;1.80;;
21593;SDS011;10959;51.328;7.322;2022-08-04T04:22:00;2.85;;;1.73;;
21593;SDS011;10959;51.328;7.322;2022-08-04T04:24:43;4.13;;;2.05;;
21593;SDS011;10959;51.328;7.322;2022-08-04T04:27:28;3.55;;;2.00;;
21593;SDS011;10959;51.328;7.322;2022-08-04T04:30:16;3.05;;;1.80;;
21593;SDS011;10959;51.328;7.322;2022-08-04T04:32:53;3.58;;;1.90;;
21593;SDS011;10959;51.328;7.322;2022-08-04T04:35:40;3.63;;;2.10;;
21593;SDS011;10959;51.328;7.322;2022-08-04T04:38:22;2.08;;;1.65;;
21593;SDS011;10959;51.328;7.322;2022-08-04T04:40:59;3.80;;;2.00;;
21593;SDS011;10959;51.328;7.322;2022-08-04T04:43:42;2.97;;;2.22;;
21593;SDS011;10959;51.328;7.322;2022-08-04T04:46:25;1.90;;;1.80;;
21593;SDS011;10959;51.328;7.322;2022-08-04T04:49:00;3.03;;;1.55;;
21593;SDS011;10959;51.328;7.322;2022-08-04T04:51:35;2.05;;;1.60;;
21593;SDS011;10959;51.328;7.322;2022-08-04T04:54:10;2.10;;;1.85;;
21593;SDS011;10959;51.328;7.322;2022-08-04T04:56:45;3.40;;;1.92;;
21593;SDS011;10959;51.328;7.322;2022-08-04T04:59:17;2.13;;;1.70;;
21593;SDS011;10959;51.328;7.322;2022-08-04T05:04:50;2.85;;;1.80;;
21593;SDS011;10959;51.328;7.322;2022-08-04T05:10:26;3.65;;;2.58;;
21593;SDS011;10959;51.328;7.322;2022-08-04T05:13:09;4.25;;;2.17;;
21593;SDS011;10959;51.328;7.322;2022-08-04T05:15:55;2.78;;;2.30;;
21593;SDS011;10959;51.328;7.322;2022-08-04T05:18:29;2.08;;;1.88;;
21593;SDS011;10959;51.328;7.322;2022-08-04T05:21:05;3.40;;;2.00;;
21593;SDS011;10959;51.328;7.322;2022-08-04T05:28:44;2.28;;;1.90;;
21593;SDS011;10959;51.328;7.322;2022-08-04T05:31:22;3.25;;;1.95;;
21593;SDS011;10959;51.328;7.322;2022-08-04T05:33:53;2.53;;;1.83;;
21593;SDS011;10959;51.328;7.322;2022-08-04T05:36:23;4.78;;;2.03;;
21593;SDS011;10959;51.328;7.322;2022-08-04T05:38:55;3.78;;;2.33;;
21593;SDS011;10959;51.328;7.322;2022-08-04T05:41:24;2.63;;;2.00;;
21593;SDS011;10959;51.328;7.322;2022-08-04T05:43:52;2.22;;;2.03;;
21593;SDS011;10959;51.328;7.322;2022-08-04T05:46:21;4.18;;;1.85;;
21593;SDS011;10959;51.328;7.322;2022-08-04T05:48:48;2.25;;;2.00;;
21593;SDS011;10959;51.328;7.322;2022-08-04T05:51:17;2.83;;;1.80;;
21593;SDS011;10959;51.328;7.322;2022-08-04T05:53:45;4.85;;;2.30;;
21593;SDS011;10959;51.328;7.322;2022-08-04T05:56:13;2.22;;;1.80;;
21593;SDS011;10959;51.328;7.322;2022-08-04T05:58:40;3.25;;;1.67;;
21593;SDS011;10959;51.328;7.322;2022-08-04T06:01:08;3.03;;;1.90;;
21593;SDS011;10959;51.328;7.322;2022-08-04T06:03:36;2.60;;;2.22;;
21593;SDS011;10959;51.328;7.322;2022-08-04T06:06:04;3.22;;;1.70;;
21593;SDS011;10959;51.328;7.322;2022-08-04T06:08:33;2.72;;;1.90;;
21593;SDS011;10959;51.328;7.322;2022-08-04T06:11:01;2.05;;;1.70;;
21593;SDS011;10959;51.328;7.322;2022-08-04T06:13:32;3.97;;;1.58;;
21593;SDS011;10959;51.328;7.322;2022-08-04T06:16:03;3.45;;;2.33;;
21593;SDS011;10959;51.328;7.322;2022-08-04T06:18:32;2.65;;;1.90;;
21593;SDS011;10959;51.328;7.322;2022-08-04T06:21:03;3.35;;;1.85;;
21593;SDS011;10959;51.328;7.322;2022-08-04T06:23:35;4.38;;;1.80;;
21593;SDS011;10959;51.328;7.322;2022-08-04T06:26:04;2.63;;;1.67;;
21593;SDS011;10959;51.328;7.322;2022-08-04T06:28:34;2.67;;;2.00;;
21593;SDS011;10959;51.328;7.322;2022-08-04T06:31:02;3.63;;;1.88;;
21593;SDS011;10959;51.328;7.322;2022-08-04T06:33:31;3.05;;;1.98;;
21593;SDS011;10959;51.328;7.322;2022-08-04T06:35:59;1.80;;;1.60;;
21593;SDS011;10959;51.328;7.322;2022-08-04T06:38:28;3.08;;;1.83;;
21593;SDS011;10959;51.328;7.322;2022-08-04T06:40:57;2.88;;;1.80;;
21593;SDS011;10959;51.328;7.322;2022-08-04T06:43:28;4.32;;;2.10;;
21593;SDS011;10959;51.328;7.322;2022-08-04T06:45:56;2.95;;;1.52;;
21593;SDS011;10959;51.328;7.322;2022-08-04T06:48:26;2.95;;;1.80;;
21593;SDS011;10959;51.328;7.322;2022-08-04T06:50:54;1.70;;;1.60;;
21593;SDS011;10959;51.328;7.322;2022-08-04T06:53:21;2.88;;;1.63;;
21593;SDS011;10959;51.328;7.322;2022-08-04T06:55:49;1.63;;;1.52;;
21593;SDS011;10959;51.328;7.322;2022-08-04T06:58:18;2.25;;;1.50;;
21593;SDS011;10959;51.328;7.322;2022-08-04T07:00:46;1.90;;;1.60;;
21593;SDS011;10959;51.328;7.322;2022-08-04T07:03:14;2.50;;;1.30;;
21593;SDS011;10959;51.328;7.322;2022-08-04T07:05:43;2.67;;;1.48;;
21593;SDS011;10959;51.328;7.322;2022-08-04T07:08:12;1.70;;;1.33;;
21593;SDS011;10959;51.328;7.322;2022-08-04T07:10:39;2.05;;;1.40;;
21593;SDS011;10959;51.328;7.322;2022-08-04T07:13:06;3.05;;;1.48;;
21593;SDS011;10959;51.328;7.322;2022-08-04T07:15:35;2.05;;;1.40;;
21593;SDS011;10959;51.328;7.322;2022-08-04T07:18:04;2.78;;;1.40;;
21593;SDS011;10959;51.328;7.322;2022-08-04T07:20:31;2.58;;;1.40;;
21593;SDS011;10959;51.328;7.322;2022-08-04T07:22:58;2.08;;;1.50;;
21593;SDS011;10959;51.328;7.322;2022-08-04T07:25:25;4.25;;;1.35;;
21593;SDS011;10959;51.328;7.322;2022-08-04T07:27:52;1.92;;;1.50;;
21593;SDS011;10959;51.328;7.322;2022-08-04T07:30:19;3.85;;;1.73;;
21593;SDS011;10959;51.328;7.322;2022-08-04T07:32:47;2.08;;;1.58;;
21593;SDS011;10959;51.328;7.322;2022-08-04T07:35:14;1.98;;;1.33;;
21593;SDS011;10959;51.328;7.322;2022-08-04T07:37:41;1.80;;;1.20;;
21593;SDS011;10959;51.328;7.322;2022-08-04T07:40:08;2.60;;;1.65;;
21593;SDS011;10959;51.328;7.322;2022-08-04T07:42:34;3.50;;;1.50;;
21593;SDS011;10959;51.328;7.322;2022-08-04T07:45:01;1.50;;;1.40;;
21593;SDS011;10959;51.328;7.322;2022-08-04T07:47:28;2.33;;;1.38;;
21593;SDS011;10959;51.328;7.322;2022-08-04T07:49:57;1.67;;;1.50;;
21593;SDS011;10959;51.328;7.322;2022-08-04T07:52:24;3.45;;;1.15;;
21593;SDS011;10959;51.328;7.322;2022-08-04T07:54:51;1.92;;;1.30;;
21593;SDS011;10959;51.328;7.322;2022-08-04T07:57:18;3.10;;;1.60;;
21593;SDS011;10959;51.328;7.322;2022-08-04T07:59:45;1.20;;;1.02;;
21593;SDS011;10959;51.328;7.322;2022-08-04T08:02:12;1.75;;;1.30;;
21593;SDS011;10959;51.328;7.322;2022-08-04T08:04:40;3.67;;;1.40;;
21593;SDS011;10959;51.328;7.322;2022-08-04T08:07:10;3.17;;;1.73;;
21593;SDS011;10959;51.328;7.322;2022-08-04T08:09:37;3.67;;;1.45;;
21593;SDS011;10959;51.328;7.322;2022-08-04T08:12:05;2.80;;;1.48;;
21593;SDS011;10959;51.328;7.322;2022-08-04T08:14:33;1.73;;;1.50;;
21593;SDS011;10959;51.328;7.322;2022-08-04T08:17:00;2.38;;;1.50;;
21593;SDS011;10959;51.328;7.322;2022-08-04T08:19:28;5.07;;;1.40;;
21593;SDS011;10959;51.328;7.322;2022-08-04T08:21:55;2.28;;;1.40;;
21593;SDS011;10959;51.328;7.322;2022-08-04T08:24:23;4.57;;;1.67;;
21593;SDS011;10959;51.328;7.322;2022-08-04T08:26:49;2.42;;;1.55;;
21593;SDS011;10959;51.328;7.322;2022-08-04T08:29:16;3.80;;;1.52;;
21593;SDS011;10959;51.328;7.322;2022-08-04T08:31:44;1.40;;;1.30;;
21593;SDS011;10959;51.328;7.322;2022-08-04T08:34:11;2.28;;;1.27;;
21593;SDS011;10959;51.328;7.322;2022-08-04T08:36:40;2.17;;;1.25;;
21593;SDS011;10959;51.328;7.322;2022-08-04T08:39:12;3.92;;;1.30;;
21593;SDS011;10959;51.328;7.322;2022-08-04T08:42:06;2.38;;;1.70;;
21593;SDS011;10959;51.328;7.322;2022-08-04T08:51:23;2.10;;;1.33;;
21593;SDS011;10959;51.328;7.322;2022-08-04T08:54:10;1.88;;;1.38;;
21593;SDS011;10959;51.328;7.322;2022-08-04T08:56:53;1.50;;;1.40;;
21593;SDS011;10959;51.328;7.322;2022-08-04T08:59:49;2.80;;;1.50;;
21593;SDS011;10959;51.328;7.322;2022-08-04T09:05:19;2.17;;;1.20;;
21593;SDS011;10959;51.328;7.322;2022-08-04T09:08:10;1.58;;;1.33;;
21593;SDS011;10959;51.328;7.322;2022-08-04T09:10:48;2.53;;;1.10;;
21593;SDS011;10959;51.328;7.322;2022-08-04T09:13:20;2.63;;;1.50;;
21593;SDS011;10959;51.328;7.322;2022-08-04T09:15:53;2.65;;;1.48;;
21593;SDS011;10959;51.328;7.322;2022-08-04T09:18:25;4.80;;;1.10;;
21593;SDS011;10959;51.328;7.322;2022-08-04T09:20:58;1.42;;;0.98;;
21593;SDS011;10959;51.328;7.322;2022-08-04T09:23:31;2.40;;;1.10;;
21593;SDS011;10959;51.328;7.322;2022-08-04T09:26:08;3.15;;;1.40;;
21593;SDS011;10959;51.328;7.322;2022-08-04T09:28:42;4.05;;;1.30;;
21593;SDS011;10959;51.328;7.322;2022-08-04T09:31:18;2.83;;;1.02;;
21593;SDS011;10959;51.328;7.322;2022-08-04T09:33:49;1.67;;;1.30;;
21593;SDS011;10959;51.328;7.322;2022-08-04T09:36:27;2.50;;;1.08;;
21593;SDS011;10959;51.328;7.322;2022-08-04T09:39:07;4.63;;;1.10;;
21593;SDS011;10959;51.328;7.322;2022-08-04T09:41:42;3.45;;;1.20;;
21593;SDS011;10959;51.328;7.322;2022-08-04T09:44:17;1.35;;;0.90;;
21593;SDS011;10959;51.328;7.322;2022-08-04T09:46:54;2.22;;;1.05;;
21593;SDS011;10959;51.328;7.322;2022-08-04T09:49:30;2.35;;;0.90;;
21593;SDS011;10959;51.328;7.322;2022-08-04T09:52:05;1.77;;;0.95;;
21593;SDS011;10959;51.328;7.322;2022-08-04T09:54:40;1.63;;;0.90;;
21593;SDS011;10959;51.328;7.322;2022-08-04T09:57:15;1.48;;;0.93;;
21593;SDS011;10959;51.328;7.322;2022-08-04T09:59:52;2.42;;;0.80;;
21593;SDS011;10959;51.328;7.322;2022-08-04T10:02:27;3.80;;;1.08;;
21593;SDS011;10959;51.328;7.322;2022-08-04T10:04:59;1.10;;;0.82;;
21593;SDS011;10959;51.328;7.322;2022-08-04T10:07:36;0.80;;;0.60;;
21593;SDS011;10959;51.328;7.322;2022-08-04T10:10:11;1.65;;;0.90;;
21593;SDS011;10959;51.328;7.322;2022-08-04T10:12:50;1.42;;;0.85;;
21593;SDS011;10959;51.328;7.322;2022-08-04T10:15:33;1.17;;;0.77;;
21593;SDS011;10959;51.328;7.322;2022-08-04T10:18:10;1.35;;;0.80;;
21593;SDS011;10959;51.328;7.322;2022-08-04T10:20:50;1.88;;;0.82;;
21593;SDS011;10959;51.328;7.322;2022-08-04T10:23:26;2.25;;;1.00;;
21593;SDS011;10959;51.328;7.322;2022-08-04T10:26:02;1.63;;;1.17;;
21593;SDS011;10959;51.328;7.322;2022-08-04T10:28:40;2.03;;;0.90;;
21593;SDS011;10959;51.328;7.322;2022-08-04T10:31:12;2.97;;;0.80;;
21593;SDS011;10959;51.328;7.322;2022-08-04T10:33:50;1.42;;;0.88;;
21593;SDS011;10959;51.328;7.322;2022-08-04T10:36:21;2.70;;;1.00;;
21593;SDS011;10959;51.328;7.322;2022-08-04T10:38:51;2.80;;;1.02;;
21593;SDS011;10959;51.328;7.322;2022-08-04T10:41:26;2.63;;;0.88;;
21593;SDS011;10959;51.328;7.322;2022-08-04T10:44:00;1.75;;;1.05;;
21593;SDS011;10959;51.328;7.322;2022-08-04T10:46:38;1.30;;;0.80;;
21593;SDS011;10959;51.328;7.322;2022-08-04T10:49:13;2.17;;;1.00;;
21593;SDS011;10959;51.328;7.322;2022-08-04T10:51:49;2.38;;;1.00;;
21593;SDS011;10959;51.328;7.322;2022-08-04T10:54:21;1.90;;;0.70;;
21593;SDS011;10959;51.328;7.322;2022-08-04T10:56:51;1.65;;;0.90;;
21593;SDS011;10959;51.328;7.322;2022-08-04T10:59:23;2.10;;;1.00;;
21593;SDS011;10959;51.328;7.322;2022-08-04T11:01:56;4.30;;;0.80;;
21593;SDS011;10959;51.328;7.322;2022-08-04T11:04:30;1.50;;;0.75;;
21593;SDS011;10959;51.328;7.322;2022-08-04T11:07:03;3.10;;;0.90;;
21593;SDS011;10959;51.328;7.322;2022-08-04T11:09:30;3.45;;;0.80;;
21593;SDS011;10959;51.328;7.322;2022-08-04T11:12:01;3.15;;;1.00;;
21593;SDS011;10959;51.328;7.322;2022-08-04T11:14:33;2.65;;;1.10;;
21593;SDS011;10959;51.328;7.322;2022-08-04T11:17:05;1.95;;;1.15;;
21593;SDS011;10959;51.328;7.322;2022-08-04T11:19:45;1.08;;;0.93;;
21593;SDS011;10959;51.328;7.322;2022-08-04T11:22:16;1.60;;;0.73;;
21593;SDS011;10959;51.328;7.322;2022-08-04T11:24:51;1.85;;;1.40;;
21593;SDS011;10959;51.328;7.322;2022-08-04T11:27:23;1.50;;;1.20;;
21593;SDS011;10959;51.328;7.322;2022-08-04T11:29:55;4.47;;;1.80;;
21593;SDS011;10959;51.328;7.322;2022-08-04T11:32:30;4.85;;;1.52;;
21593;SDS011;10959;51.328;7.322;2022-08-04T11:35:05;5.85;;;1.50;;
21593;SDS011;10959;51.328;7.322;2022-08-04T11:37:40;1.65;;;1.13;;
21593;SDS011;10959;51.328;7.322;2022-08-04T11:40:12;6.72;;;1.50;;
21593;SDS011;10959;51.328;7.322;2022-08-04T11:42:55;1.80;;;1.08;;
21593;SDS011;10959;51.328;7.322;2022-08-04T11:45:27;2.70;;;1.58;;
21593;SDS011;10959;51.328;7.322;2022-08-04T11:48:00;3.05;;;1.42;;
21593;SDS011;10959;51.328;7.322;2022-08-04T11:50:34;2.65;;;1.20;;
21593;SDS011;10959;51.328;7.322;2022-08-04T11:53:05;5.65;;;1.30;;
21593;SDS011;10959;51.328;7.322;2022-08-04T11:55:33;2.33;;;1.38;;
21593;SDS011;10959;51.328;7.322;2022-08-04T11:58:03;3.10;;;1.35;;
21593;SDS011;10959;51.328;7.322;2022-08-04T12:00:30;7.88;;;1.40;;
21593;SDS011;10959;51.328;7.322;2022-08-04T12:05:57;1.83;;;1.10;;
21593;SDS011;10959;51.328;7.322;2022-08-04T12:08:45;4.97;;;1.45;;
21593;SDS011;10959;51.328;7.322;2022-08-04T12:11:23;5.45;;;1.38;;
21593;SDS011;10959;51.328;7.322;2022-08-04T12:13:59;4.53;;;1.70;;
21593;SDS011;10959;51.328;7.322;2022-08-04T12:16:36;4.95;;;1.55;;
21593;SDS011;10959;51.328;7.322;2022-08-04T12:19:08;3.85;;;1.40;;
21593;SDS011;10959;51.328;7.322;2022-08-04T12:21:44;4.13;;;1.67;;
21593;SDS011;10959;51.328;7.322;2022-08-04T12:24:16;5.28;;;1.58;;
21593;SDS011;10959;51.328;7.322;2022-08-04T12:26:47;3.17;;;1.20;;
21593;SDS011;10959;51.328;7.322;2022-08-04T12:29:17;5.45;;;1.65;;
21593;SDS011;10959;51.328;7.322;2022-08-04T12:31:48;4.68;;;1.38;;
21593;SDS011;10959;51.328;7.322;2022-08-04T12:34:21;2.08;;;1.33;;
21593;SDS011;10959;51.328;7.322;2022-08-04T12:37:01;3.50;;;1.27;;
21593;SDS011;10959;51.328;7.322;2022-08-04T12:39:30;2.67;;;1.58;;
21593;SDS011;10959;51.328;7.322;2022-08-04T12:42:00;3.22;;;1.33;;
21593;SDS011;10959;51.328;7.322;2022-08-04T12:44:33;3.38;;;1.05;;
21593;SDS011;10959;51.328;7.322;2022-08-04T12:47:02;2.80;;;1.20;;
21593;SDS011;10959;51.328;7.322;2022-08-04T12:49:31;3.95;;;1.60;;
21593;SDS011;10959;51.328;7.322;2022-08-04T12:52:04;5.60;;;1.67;;
21593;SDS011;10959;51.328;7.322;2022-08-04T12:54:32;7.53;;;1.58;;
21593;SDS011;10959;51.328;7.322;2022-08-04T12:57:01;4.57;;;1.70;;
21593;SDS011;10959;51.328;7.322;2022-08-04T12:59:32;3.10;;;1.27;;
21593;SDS011;10959;51.328;7.322;2022-08-04T13:02:03;4.43;;;1.92;;
21593;SDS011;10959;51.328;7.322;2022-08-04T13:04:33;2.55;;;1.58;;
21593;SDS011;10959;51.328;7.322;2022-08-04T13:07:08;3.35;;;1.65;;
21593;SDS011;10959;51.328;7.322;2022-08-04T13:09:38;3.42;;;1.30;;
21593;SDS011;10959;51.328;7.322;2022-08-04T13:12:11;1.85;;;1.30;;
21593;SDS011;10959;51.328;7.322;2022-08-04T13:14:40;2.15;;;1.50;;
21593;SDS011;10959;51.328;7.322;2022-08-04T13:17:08;3.53;;;1.50;;
21593;SDS011;10959;51.328;7.322;2022-08-04T13:19:35;4.63;;;1.75;;
21593;SDS011;10959;51.328;7.322;2022-08-04T13:22:03;5.75;;;1.90;;
21593;SDS011;10959;51.328;7.322;2022-08-04T13:24:32;3.55;;;1.75;;
21593;SDS011;10959;51.328;7.322;2022-08-04T13:27:02;2.47;;;1.40;;
21593;SDS011;10959;51.328;7.322;2022-08-04T13:29:33;2.38;;;1.58;;
21593;SDS011;10959;51.328;7.322;2022-08-04T13:32:02;2.00;;;1.40;;
21593;SDS011;10959;51.328;7.322;2022-08-04T13:34:30;3.88;;;1.65;;
21593;SDS011;10959;51.328;7.322;2022-08-04T13:36:58;3.88;;;1.63;;
21593;SDS011;10959;51.328;7.322;2022-08-04T13:39:26;3.53;;;1.50;;
21593;SDS011;10959;51.328;7.322;2022-08-04T13:41:57;3.60;;;1.38;;
21593;SDS011;10959;51.328;7.322;2022-08-04T13:44:28;2.33;;;1.60;;
21593;SDS011;10959;51.328;7.322;2022-08-04T13:46:57;3.55;;;1.38;;
21593;SDS011;10959;51.328;7.322;2022-08-04T13:49:26;5.03;;;1.50;;
21593;SDS011;10959;51.328;7.322;2022-08-04T13:51:53;4.30;;;1.40;;
21593;SDS011;10959;51.328;7.322;2022-08-04T13:54:21;4.07;;;1.50;;
21593;SDS011;10959;51.328;7.322;2022-08-04T13:56:49;4.25;;;1.40;;
21593;SDS011;10959;51.328;7.322;2022-08-04T13:59:21;5.50;;;1.70;;
21593;SDS011;10959;51.328;7.322;2022-08-04T14:01:55;4.07;;;2.00;;
21593;SDS011;10959;51.328;7.322;2022-08-04T14:04:24;5.00;;;1.67;;
21593;SDS011;10959;51.328;7.322;2022-08-04T14:06:53;6.00;;;1.60;;
21593;SDS011;10959;51.328;7.322;2022-08-04T14:09:23;4.97;;;1.35;;
21593;SDS011;10959;51.328;7.322;2022-08-04T14:11:53;4.75;;;2.00;;
21593;SDS011;10959;51.328;7.322;2022-08-04T14:14:24;5.28;;;1.80;;
21593;SDS011;10959;51.328;7.322;2022-08-04T14:16:56;4.88;;;1.80;;
21593;SDS011;10959;51.328;7.322;2022-08-04T14:19:24;4.53;;;1.85;;
21593;SDS011;10959;51.328;7.322;2022-08-04T14:21:51;4.70;;;1.83;;
21593;SDS011;10959;51.328;7.322;2022-08-04T14:24:21;4.32;;;2.28;;
21593;SDS011;10959;51.328;7.322;2022-08-04T14:26:49;4.90;;;1.90;;
21593;SDS011;10959;51.328;7.322;2022-08-04T14:29:17;4.45;;;1.80;;
21593;SDS011;10959;51.328;7.322;2022-08-04T14:31:47;2.85;;;1.98;;
21593;SDS011;10959;51.328;7.322;2022-08-04T14:34:24;2.47;;;1.45;;
21593;SDS011;10959;51.328;7.322;2022-08-04T14:36:51;5.38;;;1.70;;
21593;SDS011;10959;51.328;7.322;2022-08-04T14:39:20;4.13;;;1.67;;
21593;SDS011;10959;51.328;7.322;2022-08-04T14:42:02;4.40;;;1.90;;
21593;SDS011;10959;51.328;7.322;2022-08-04T14:44:28;5.70;;;1.58;;
21593;SDS011;10959;51.328;7.322;2022-08-04T14:46:56;2.97;;;1.70;;
21593;SDS011;10959;51.328;7.322;2022-08-04T14:49:23;4.90;;;1.90;;
21593;SDS011;10959;51.328;7.322;2022-08-04T14:51:51;4.28;;;1.90;;
21593;SDS011;10959;51.328;7.322;2022-08-04T14:54:26;3.55;;;2.40;;
21593;SDS011;10959;51.328;7.322;2022-08-04T14:56:54;4.63;;;1.77;;
21593;SDS011;10959;51.328;7.322;2022-08-04T14:59:23;5.57;;;2.10;;
21593;SDS011;10959;51.328;7.322;2022-08-04T15:01:50;5.78;;;1.95;;
21593;SDS011;10959;51.328;7.322;2022-08-04T15:04:19;5.00;;;1.63;;
21593;SDS011;10959;51.328;7.322;2022-08-04T15:06:50;4.20;;;1.50;;
21593;SDS011;10959;51.328;7.322;2022-08-04T15:09:16;4.57;;;1.95;;
21593;SDS011;10959;51.328;7.322;2022-08-04T15:11:46;3.17;;;1.83;;
21593;SDS011;10959;51.328;7.322;2022-08-04T15:14:12;3.88;;;1.52;;
21593;SDS011;10959;51.328;7.322;2022-08-04T15:16:39;3.78;;;1.70;;
21593;SDS011;10959;51.328;7.322;2022-08-04T15:19:06;5.80;;;2.40;;
21593;SDS011;10959;51.328;7.322;2022-08-04T15:21:34;2.63;;;1.90;;
21593;SDS011;10959;51.328;7.322;2022-08-04T15:24:02;6.55;;;1.90;;
21593;SDS011;10959;51.328;7.322;2022-08-04T15:26:30;5.93;;;1.80;;
21593;SDS011;10959;51.328;7.322;2022-08-04T15:29:05;3.20;;;2.03;;
21593;SDS011;10959;51.328;7.322;2022-08-04T15:31:37;4.15;;;1.70;;
21593;SDS011;10959;51.328;7.322;2022-08-04T15:34:06;2.72;;;1.73;;
21593;SDS011;10959;51.328;7.322;2022-08-04T15:36:51;10.80;;;2.15;;
21593;SDS011;10959;51.328;7.322;2022-08-04T15:39:21;3.40;;;1.90;;
21593;SDS011;10959;51.328;7.322;2022-08-04T15:41:57;5.75;;;2.10;;
21593;SDS011;10959;51.328;7.322;2022-08-04T15:47:36;3.50;;;1.98;;
21593;SDS011;10959;51.328;7.322;2022-08-04T15:50:04;3.03;;;2.05;;
21593;SDS011;10959;51.328;7.322;2022-08-04T15:55:30;5.07;;;1.90;;
21593;SDS011;10959;51.328;7.322;2022-08-04T15:58:00;5.22;;;1.85;;
21593;SDS011;10959;51.328;7.322;2022-08-04T16:01:11;3.40;;;1.85;;
21593;SDS011;10959;51.328;7.322;2022-08-04T16:03:42;2.63;;;1.52;;
21593;SDS011;10959;51.328;7.322;2022-08-04T16:09:20;7.95;;;3.90;;
21593;SDS011;10959;51.328;7.322;2022-08-04T16:11:49;7.38;;;4.53;;
21593;SDS011;10959;51.328;7.322;2022-08-04T16:14:16;3.50;;;1.60;;
21593;SDS011;10959;51.328;7.322;2022-08-04T16:16:55;8.98;;;2.10;;
21593;SDS011;10959;51.328;7.322;2022-08-04T16:19:24;3.20;;;1.80;;
21593;SDS011;10959;51.328;7.322;2022-08-04T16:21:58;7.75;;;1.83;;
21593;SDS011;10959;51.328;7.322;2022-08-04T16:24:28;5.88;;;1.70;;
21593;SDS011;10959;51.328;7.322;2022-08-04T16:27:00;4.55;;;1.50;;